createdAt,value
2023-02-06T00:00:00.836Z,4.57
2023-02-06T00:02:27.170Z,4.64
2023-02-06T00:04:53.442Z,4.55
2023-02-06T00:07:19.720Z,4.38
2023-02-06T00:09:45.965Z,4.28
2023-02-06T00:12:12.247Z,4.37
2023-02-06T00:14:38.583Z,4.19
2023-02-06T00:17:04.872Z,4.13
2023-02-06T00:19:31.121Z,4.12
2023-02-06T00:21:57.397Z,4.20
2023-02-06T00:24:23.650Z,3.93
2023-02-06T00:26:49.924Z,4.01
2023-02-06T00:29:16.178Z,3.92
2023-02-06T00:31:42.505Z,3.59
2023-02-06T00:34:08.821Z,3.65
2023-02-06T00:36:35.053Z,3.60
2023-02-06T00:39:01.310Z,3.98
2023-02-06T00:41:27.559Z,4.05
2023-02-06T00:43:53.849Z,4.01
2023-02-06T00:46:20.166Z,3.98
2023-02-06T00:48:46.423Z,3.89
2023-02-06T00:51:12.699Z,3.88
2023-02-06T00:53:38.995Z,3.73
2023-02-06T00:56:05.433Z,3.85
2023-02-06T00:58:31.816Z,3.84
2023-02-06T01:00:58.086Z,3.89
2023-02-06T01:03:24.349Z,3.91
2023-02-06T01:05:50.651Z,3.79
2023-02-06T01:08:16.961Z,3.97
2023-02-06T01:10:43.204Z,4.17
2023-02-06T01:13:09.453Z,4.14
2023-02-06T01:15:35.986Z,3.93
2023-02-06T01:18:02.417Z,4.02
2023-02-06T01:20:28.679Z,4.29
2023-02-06T01:22:54.925Z,4.35
2023-02-06T01:25:21.179Z,4.39
2023-02-06T01:27:47.459Z,4.27
2023-02-06T01:30:13.728Z,3.98
2023-02-06T01:32:40.022Z,4.18
2023-02-06T01:35:06.266Z,4.29
2023-02-06T01:37:32.527Z,4.36
2023-02-06T01:39:58.782Z,4.26
2023-02-06T01:42:25.037Z,4.45
2023-02-06T01:44:51.297Z,4.44
2023-02-06T01:47:17.572Z,4.55
2023-02-06T01:49:43.837Z,4.55
2023-02-06T01:52:10.109Z,4.36
2023-02-06T01:54:36.361Z,4.26
2023-02-06T01:57:02.628Z,4.30
2023-02-06T01:59:28.881Z,4.25
2023-02-06T02:01:55.169Z,4.30
2023-02-06T02:04:21.458Z,4.27
2023-02-06T02:06:47.720Z,4.40
2023-02-06T02:09:14.415Z,4.05
2023-02-06T02:11:40.714Z,4.37
2023-02-06T02:14:06.990Z,4.47
2023-02-06T02:16:33.353Z,4.35
2023-02-06T02:18:59.620Z,4.32
2023-02-06T02:21:25.890Z,3.97
2023-02-06T02:23:52.165Z,3.75
2023-02-06T02:26:18.450Z,3.98
2023-02-06T02:28:44.725Z,3.77
2023-02-06T02:31:11.000Z,3.65
2023-02-06T02:33:37.269Z,3.38
2023-02-06T02:36:03.528Z,3.24
2023-02-06T02:38:30.882Z,3.35
2023-02-06T02:40:57.148Z,3.20
2023-02-06T02:43:23.413Z,3.09
2023-02-06T02:45:49.724Z,3.29
2023-02-06T02:48:15.978Z,3.34
2023-02-06T02:50:42.237Z,3.27
2023-02-06T02:53:08.493Z,3.15
2023-02-06T02:55:35.186Z,2.96
2023-02-06T02:58:01.705Z,3.16
2023-02-06T03:00:27.957Z,3.10
2023-02-06T03:02:54.228Z,2.86
2023-02-06T03:05:20.495Z,3.02
2023-02-06T03:07:46.751Z,2.92
2023-02-06T03:10:13.020Z,2.78
2023-02-06T03:12:39.288Z,2.73
2023-02-06T03:15:05.555Z,2.75
2023-02-06T03:17:31.823Z,2.98
2023-02-06T03:19:58.085Z,3.06
2023-02-06T03:22:24.336Z,3.01
2023-02-06T03:24:50.596Z,3.18
2023-02-06T03:27:16.866Z,3.14
2023-02-06T03:29:43.102Z,2.70
2023-02-06T03:32:09.346Z,2.98
2023-02-06T03:34:35.610Z,2.96
2023-02-06T03:37:01.873Z,3.02
2023-02-06T03:39:28.115Z,3.26
2023-02-06T03:41:54.366Z,2.73
2023-02-06T03:44:20.619Z,2.93
2023-02-06T03:46:46.854Z,3.21
2023-02-06T03:49:13.097Z,3.40
2023-02-06T03:51:39.381Z,3.48
2023-02-06T03:54:05.654Z,3.45
2023-02-06T03:56:31.897Z,3.55
2023-02-06T03:58:58.161Z,3.66
2023-02-06T04:01:24.446Z,3.58
2023-02-06T04:03:50.706Z,3.65
2023-02-06T04:06:16.948Z,3.65
2023-02-06T04:08:43.189Z,3.52
2023-02-06T04:11:09.430Z,3.44
2023-02-06T04:13:35.688Z,3.52
2023-02-06T04:16:01.933Z,3.66
2023-02-06T04:18:28.181Z,3.51
2023-02-06T04:20:54.463Z,3.55
2023-02-06T04:23:20.721Z,3.53
2023-02-06T04:25:47.081Z,3.71
2023-02-06T04:28:13.357Z,3.80
2023-02-06T04:30:39.688Z,3.77
2023-02-06T04:33:05.945Z,3.76
2023-02-06T04:35:32.200Z,3.79
2023-02-06T04:37:58.466Z,3.77
2023-02-06T04:40:24.731Z,3.60
2023-02-06T04:42:50.974Z,3.70
2023-02-06T04:45:17.226Z,3.74
2023-02-06T04:47:43.483Z,3.73
2023-02-06T04:50:09.760Z,3.82
2023-02-06T04:52:36.004Z,3.63
2023-02-06T04:55:02.247Z,3.84
2023-02-06T04:57:28.518Z,3.91
2023-02-06T04:59:54.792Z,3.88
2023-02-06T05:02:21.100Z,3.97
2023-02-06T05:04:47.358Z,3.75
2023-02-06T05:07:13.610Z,3.82
2023-02-06T05:09:39.848Z,3.88
2023-02-06T05:12:06.134Z,3.65
2023-02-06T05:14:32.390Z,3.81
2023-02-06T05:16:58.651Z,3.98
2023-02-06T05:19:24.933Z,3.91
2023-02-06T05:21:51.183Z,3.92
2023-02-06T05:24:17.439Z,3.61
2023-02-06T05:26:43.706Z,3.41
2023-02-06T05:29:10.078Z,3.69
2023-02-06T05:31:36.446Z,3.68
2023-02-06T05:34:02.807Z,3.44
2023-02-06T05:36:29.258Z,3.53
2023-02-06T05:38:55.572Z,3.39
2023-02-06T05:41:21.830Z,3.28
2023-02-06T05:43:48.077Z,3.38
2023-02-06T05:46:14.412Z,3.44
2023-02-06T05:48:40.799Z,3.37
2023-02-06T05:51:07.088Z,3.17
2023-02-06T05:53:33.368Z,3.43
2023-02-06T05:55:59.645Z,3.48
2023-02-06T05:58:25.953Z,3.32
2023-02-06T06:00:52.254Z,3.37
2023-02-06T06:03:18.551Z,3.25
2023-02-06T06:05:44.789Z,3.16
2023-02-06T06:08:11.117Z,2.98
2023-02-06T06:10:37.379Z,3.01
2023-02-06T06:13:03.718Z,2.75
2023-02-06T06:15:29.987Z,3.12
2023-02-06T06:17:56.257Z,3.30
2023-02-06T06:20:22.509Z,3.15
2023-02-06T06:22:48.826Z,3.11
2023-02-06T06:25:15.119Z,3.29
2023-02-06T06:27:41.387Z,3.34
2023-02-06T06:30:07.634Z,3.39
2023-02-06T06:32:33.885Z,3.37
2023-02-06T06:35:00.158Z,3.56
2023-02-06T06:37:26.403Z,3.29
2023-02-06T06:39:52.651Z,3.19
2023-02-06T06:42:18.914Z,3.05
2023-02-06T06:44:45.186Z,2.82
2023-02-06T06:47:11.441Z,2.56
2023-02-06T06:49:37.708Z,2.79
2023-02-06T06:52:07.043Z,2.70
2023-02-06T06:54:35.204Z,2.81
2023-02-06T06:57:01.481Z,2.91
2023-02-06T06:59:27.768Z,3.05
2023-02-06T07:01:54.021Z,2.99
2023-02-06T07:04:20.263Z,3.03
2023-02-06T07:06:46.523Z,2.68
2023-02-06T07:09:12.790Z,2.67
2023-02-06T07:11:39.036Z,2.62
2023-02-06T07:14:05.299Z,2.93
2023-02-06T07:16:31.607Z,3.00
2023-02-06T07:18:57.907Z,3.11
2023-02-06T07:21:24.165Z,3.14
2023-02-06T07:23:50.404Z,2.85
2023-02-06T07:26:16.764Z,2.96
2023-02-06T07:28:43.042Z,2.97
2023-02-06T07:31:09.294Z,2.95
2023-02-06T07:33:35.567Z,3.27
2023-02-06T07:36:03.840Z,3.30
2023-02-06T07:38:30.481Z,3.35
2023-02-06T07:40:56.746Z,3.17
2023-02-06T07:43:23.029Z,3.17
2023-02-06T07:45:49.298Z,3.11
2023-02-06T07:48:15.588Z,3.29
2023-02-06T07:50:41.856Z,3.24
2023-02-06T07:53:08.112Z,3.20
2023-02-06T07:55:34.454Z,2.94
2023-02-06T07:58:00.829Z,2.99
2023-02-06T08:00:27.104Z,3.02
2023-02-06T08:02:53.377Z,3.22
2023-02-06T08:05:19.664Z,3.14
2023-02-06T08:07:45.925Z,3.45
2023-02-06T08:10:12.213Z,3.17
2023-02-06T08:12:38.476Z,3.24
2023-02-06T08:15:04.838Z,3.12
2023-02-06T08:17:31.102Z,3.32
2023-02-06T08:19:57.372Z,3.46
2023-02-06T08:22:23.637Z,3.15
2023-02-06T08:24:49.900Z,3.13
2023-02-06T08:27:16.188Z,3.27
2023-02-06T08:29:42.469Z,3.37
2023-02-06T08:32:08.871Z,3.21
2023-02-06T08:34:35.118Z,3.29
2023-02-06T08:37:01.407Z,3.43
2023-02-06T08:39:27.718Z,3.42
2023-02-06T08:41:53.982Z,3.48
2023-02-06T08:44:20.249Z,3.69
2023-02-06T08:46:46.510Z,3.56
2023-02-06T08:49:12.786Z,3.45
2023-02-06T08:51:39.062Z,3.51
2023-02-06T08:54:05.328Z,3.69
2023-02-06T08:56:31.632Z,3.71
2023-02-06T08:58:57.902Z,3.50
2023-02-06T09:01:24.232Z,3.36
2023-02-06T09:03:50.508Z,3.39
2023-02-06T09:06:16.788Z,3.23
2023-02-06T09:08:43.075Z,3.16
2023-02-06T09:11:09.355Z,3.25
2023-02-06T09:13:35.606Z,3.25
2023-02-06T09:16:01.914Z,3.13
2023-02-06T09:18:28.209Z,3.41
2023-02-06T09:20:54.470Z,3.14
2023-02-06T09:23:20.734Z,3.34
2023-02-06T09:25:46.999Z,3.44
2023-02-06T09:28:13.299Z,3.28
2023-02-06T09:30:39.627Z,3.22
2023-02-06T09:33:05.938Z,3.45
2023-02-06T09:35:32.236Z,3.11
2023-02-06T09:37:58.528Z,3.37
2023-02-06T09:40:24.805Z,3.74
2023-02-06T09:42:51.062Z,3.68
2023-02-06T09:45:17.317Z,3.45
2023-02-06T09:47:45.182Z,3.67
2023-02-06T09:50:12.682Z,3.85
2023-02-06T09:52:38.942Z,3.81
2023-02-06T09:55:05.212Z,3.49
2023-02-06T09:57:31.500Z,3.37
2023-02-06T09:59:57.986Z,3.74
2023-02-06T10:02:24.261Z,3.82
2023-02-06T10:04:50.521Z,3.85
2023-02-06T10:07:16.833Z,4.02
2023-02-06T10:09:43.194Z,3.67
2023-02-06T10:12:09.471Z,3.67
2023-02-06T10:14:35.752Z,3.47
2023-02-06T10:17:02.026Z,3.85
2023-02-06T10:19:28.326Z,3.64
2023-02-06T10:21:54.585Z,3.64
2023-02-06T10:24:20.877Z,3.71
2023-02-06T10:26:50.185Z,3.92
2023-02-06T10:29:16.939Z,3.89
2023-02-06T10:31:43.297Z,3.94
2023-02-06T10:34:09.662Z,3.76
2023-02-06T10:36:35.916Z,4.08
2023-02-06T10:39:02.181Z,3.87
2023-02-06T10:41:28.465Z,4.01
2023-02-06T10:43:54.769Z,3.90
2023-02-06T10:46:21.119Z,4.25
2023-02-06T10:48:47.405Z,4.30
2023-02-06T10:51:13.673Z,4.30
2023-02-06T10:53:39.927Z,4.21
2023-02-06T10:56:06.205Z,4.13
2023-02-06T10:58:32.472Z,4.14
2023-02-06T11:00:58.803Z,4.34
2023-02-06T11:03:25.213Z,4.42
2023-02-06T11:05:51.475Z,4.74
2023-02-06T11:08:17.794Z,4.65
2023-02-06T11:10:44.089Z,4.37
2023-02-06T11:13:10.353Z,4.48
2023-02-06T11:15:36.896Z,4.65
2023-02-06T11:18:03.396Z,4.74
2023-02-06T11:20:29.689Z,4.68
2023-02-06T11:22:55.942Z,4.61
2023-02-06T11:25:22.269Z,4.70
2023-02-06T11:27:48.548Z,4.56
2023-02-06T11:30:14.877Z,4.53
2023-02-06T11:32:41.146Z,4.70
2023-02-06T11:35:07.448Z,4.42
2023-02-06T11:37:33.727Z,4.59
2023-02-06T11:39:59.987Z,4.13
2023-02-06T11:42:26.254Z,4.15
2023-02-06T11:44:52.505Z,4.57
2023-02-06T11:47:18.775Z,4.55
2023-02-06T11:49:45.064Z,4.21
2023-02-06T11:52:11.347Z,4.33
2023-02-06T11:54:37.625Z,4.69
2023-02-06T11:57:03.957Z,4.64
2023-02-06T11:59:30.274Z,4.77
2023-02-06T12:01:56.598Z,4.90
2023-02-06T12:04:22.882Z,4.80
2023-02-06T12:06:49.148Z,4.86
2023-02-06T12:09:15.425Z,5.01
2023-02-06T12:11:41.681Z,4.86
2023-02-06T12:14:07.960Z,4.69
2023-02-06T12:16:34.255Z,4.74
2023-02-06T12:19:00.638Z,4.73
2023-02-06T12:21:26.964Z,4.58
2023-02-06T12:23:53.212Z,4.62
2023-02-06T12:26:19.454Z,4.48
2023-02-06T12:28:45.727Z,4.41
2023-02-06T12:31:12.018Z,4.36
2023-02-06T12:33:38.336Z,4.04
2023-02-06T12:36:04.608Z,4.42
2023-02-06T12:38:30.856Z,4.32
2023-02-06T12:40:57.131Z,4.09
2023-02-06T12:43:23.445Z,4.45
2023-02-06T12:45:49.829Z,4.38
2023-02-06T12:48:16.236Z,4.20
2023-02-06T12:50:42.524Z,4.34
2023-02-06T12:53:08.796Z,4.44
2023-02-06T12:55:35.428Z,4.56
2023-02-06T12:58:01.845Z,4.46
2023-02-06T13:00:28.117Z,4.68
2023-02-06T13:02:54.460Z,4.37
2023-02-06T13:05:20.733Z,4.58
2023-02-06T13:07:50.104Z,4.65
2023-02-06T13:10:16.456Z,4.79
2023-02-06T13:12:42.709Z,4.56
2023-02-06T13:15:08.994Z,4.57
2023-02-06T13:17:35.270Z,4.68
2023-02-06T13:20:01.549Z,4.54
2023-02-06T13:22:27.819Z,4.53
2023-02-06T13:24:54.109Z,4.63
2023-02-06T13:27:20.362Z,4.74
2023-02-06T13:29:46.656Z,4.54
2023-02-06T13:32:12.906Z,4.82
2023-02-06T13:34:39.167Z,4.55
2023-02-06T13:37:05.448Z,4.82
2023-02-06T13:39:31.733Z,4.82
2023-02-06T13:41:58.020Z,4.86
2023-02-06T13:44:24.287Z,4.82
2023-02-06T13:46:50.549Z,4.94
2023-02-06T13:49:16.811Z,5.07
2023-02-06T13:51:43.063Z,5.04
2023-02-06T13:54:09.315Z,5.15
2023-02-06T13:56:35.724Z,5.19
2023-02-06T13:59:02.025Z,5.04
2023-02-06T14:01:28.310Z,4.94
2023-02-06T14:03:54.600Z,5.09
2023-02-06T14:06:20.851Z,5.01
2023-02-06T14:08:47.137Z,5.06
2023-02-06T14:11:13.405Z,5.18
2023-02-06T14:13:39.662Z,5.24
2023-02-06T14:16:06.009Z,5.08
2023-02-06T14:18:32.291Z,5.13
2023-02-06T14:20:58.574Z,5.26
2023-02-06T14:23:25.562Z,5.13
2023-02-06T14:25:51.885Z,5.00
2023-02-06T14:28:18.209Z,5.14
2023-02-06T14:30:44.616Z,5.08
2023-02-06T14:33:10.908Z,4.76
2023-02-06T14:35:37.478Z,5.02
2023-02-06T14:38:04.090Z,5.08
2023-02-06T14:40:30.351Z,5.03
2023-02-06T14:42:56.617Z,4.43
2023-02-06T14:45:22.885Z,4.68
2023-02-06T14:47:49.145Z,4.67
2023-02-06T14:50:15.390Z,4.70
2023-02-06T14:52:41.703Z,4.82
2023-02-06T14:55:07.985Z,4.68
2023-02-06T14:57:34.266Z,4.69
2023-02-06T15:00:00.580Z,4.56
2023-02-06T15:02:26.878Z,4.62
2023-02-06T15:04:53.150Z,4.67
2023-02-06T15:07:19.402Z,4.54
2023-02-06T15:09:45.684Z,4.73
2023-02-06T15:12:11.964Z,4.88
2023-02-06T15:14:38.217Z,4.74
2023-02-06T15:17:04.481Z,4.55
2023-02-06T15:19:30.783Z,4.65
2023-02-06T15:21:57.107Z,4.37
2023-02-06T15:24:23.382Z,4.60
2023-02-06T15:26:49.648Z,4.62
2023-02-06T15:29:15.979Z,4.60
2023-02-06T15:31:42.327Z,4.55
2023-02-06T15:34:08.608Z,4.54
2023-02-06T15:36:34.908Z,4.41
2023-02-06T15:39:01.196Z,4.64
2023-02-06T15:41:27.485Z,4.67
2023-02-06T15:43:53.734Z,4.74
2023-02-06T15:46:19.977Z,4.63
2023-02-06T15:48:46.262Z,4.39
2023-02-06T15:51:12.500Z,4.16
2023-02-06T15:53:38.820Z,4.15
2023-02-06T15:56:05.075Z,4.23
2023-02-06T15:58:31.331Z,4.16
2023-02-06T16:00:57.673Z,4.26
2023-02-06T16:03:24.026Z,4.25
2023-02-06T16:05:50.287Z,4.00
2023-02-06T16:08:16.554Z,4.22
2023-02-06T16:10:42.830Z,4.41
2023-02-06T16:13:09.093Z,4.58
2023-02-06T16:15:35.453Z,4.30
2023-02-06T16:18:01.740Z,4.18
2023-02-06T16:20:28.032Z,4.38
2023-02-06T16:22:54.315Z,4.53
2023-02-06T16:25:20.604Z,4.26
2023-02-06T16:27:47.067Z,4.11
2023-02-06T16:30:13.502Z,4.18
2023-02-06T16:32:39.750Z,4.24
2023-02-06T16:35:06.024Z,4.34
2023-02-06T16:37:32.292Z,4.13
2023-02-06T16:39:58.690Z,4.31
2023-02-06T16:42:24.965Z,4.31
2023-02-06T16:44:51.214Z,4.11
2023-02-06T16:47:17.466Z,4.20
2023-02-06T16:49:43.721Z,4.04
2023-02-06T16:52:10.023Z,3.99
2023-02-06T16:54:36.280Z,3.97
2023-02-06T16:57:02.561Z,4.07
2023-02-06T16:59:28.905Z,3.79
2023-02-06T17:01:55.158Z,3.93
2023-02-06T17:04:21.408Z,4.00
2023-02-06T17:06:47.650Z,4.21
2023-02-06T17:09:13.914Z,4.21
2023-02-06T17:11:40.160Z,4.20
2023-02-06T17:14:06.443Z,4.26
2023-02-06T17:16:32.707Z,3.91
2023-02-06T17:18:58.993Z,4.16
2023-02-06T17:21:25.281Z,4.18
2023-02-06T17:23:51.571Z,4.17
2023-02-06T17:26:17.857Z,4.20
2023-02-06T17:28:44.183Z,4.12
2023-02-06T17:31:10.595Z,3.96
2023-02-06T17:33:36.944Z,4.19
2023-02-06T17:36:03.227Z,4.22
2023-02-06T17:38:29.559Z,3.98
2023-02-06T17:40:55.827Z,3.93
2023-02-06T17:43:22.094Z,4.01
2023-02-06T17:45:48.366Z,4.00
2023-02-06T17:48:14.637Z,4.01
2023-02-06T17:50:40.912Z,4.19
2023-02-06T17:53:07.186Z,3.42
2023-02-06T17:55:33.430Z,3.63
2023-02-06T17:57:59.766Z,3.67
2023-02-06T18:00:26.111Z,3.63
2023-02-06T18:02:52.478Z,3.64
2023-02-06T18:05:18.775Z,3.39
2023-02-06T18:07:45.045Z,3.64
2023-02-06T18:10:11.368Z,3.68
2023-02-06T18:12:37.619Z,3.70
2023-02-06T18:15:03.917Z,3.71
2023-02-06T18:17:30.305Z,3.79
2023-02-06T18:19:56.590Z,3.75
2023-02-06T18:22:22.859Z,3.81
2023-02-06T18:24:49.128Z,3.80
2023-02-06T18:27:15.566Z,3.80
2023-02-06T18:29:49.284Z,3.66
2023-02-06T18:32:16.227Z,3.59
2023-02-06T18:34:42.470Z,3.75
2023-02-06T18:37:08.743Z,3.44
2023-02-06T18:39:35.075Z,3.13
2023-02-06T18:42:01.350Z,2.86
2023-02-06T18:44:27.596Z,3.03
2023-02-06T18:46:53.907Z,2.91
2023-02-06T18:49:20.218Z,3.04
2023-02-06T18:51:46.500Z,3.06
2023-02-06T18:54:12.771Z,2.94
2023-02-06T18:56:39.025Z,2.85
2023-02-06T18:59:05.282Z,2.94
2023-02-06T19:01:31.675Z,2.90
2023-02-06T19:03:58.062Z,2.66
2023-02-06T19:06:24.441Z,2.86
2023-02-06T19:08:50.726Z,3.05
2023-02-06T19:11:16.990Z,3.02
2023-02-06T19:13:43.340Z,2.87
2023-02-06T19:16:09.629Z,2.84
2023-02-06T19:18:40.247Z,2.91
2023-02-06T19:21:07.918Z,2.81
2023-02-06T19:23:34.186Z,2.86
2023-02-06T19:26:00.557Z,2.89
2023-02-06T19:28:26.835Z,2.82
2023-02-06T19:30:53.164Z,2.89
2023-02-06T19:33:19.504Z,2.95
2023-02-06T19:35:45.768Z,2.69
2023-02-06T19:38:12.028Z,2.98
2023-02-06T19:40:38.573Z,2.98
2023-02-06T19:43:05.119Z,2.91
2023-02-06T19:45:31.403Z,2.84
2023-02-06T19:47:57.655Z,2.72
2023-02-06T19:50:23.924Z,2.63
2023-02-06T19:52:50.181Z,2.62
2023-02-06T19:55:16.446Z,2.94
2023-02-06T19:57:42.823Z,2.83
2023-02-06T20:00:09.220Z,2.92
2023-02-06T20:02:35.491Z,2.91
2023-02-06T20:05:02.759Z,2.78
2023-02-06T20:07:29.274Z,3.00
2023-02-06T20:09:55.589Z,3.01
2023-02-06T20:12:21.855Z,3.07
2023-02-06T20:14:48.120Z,3.13
2023-02-06T20:17:14.387Z,3.16
2023-02-06T20:19:40.641Z,3.08
2023-02-06T20:22:06.912Z,2.80
2023-02-06T20:24:33.168Z,2.90
2023-02-06T20:26:59.450Z,2.75
2023-02-06T20:29:25.740Z,2.73
2023-02-06T20:31:52.132Z,2.80
2023-02-06T20:34:18.530Z,2.88
2023-02-06T20:36:44.862Z,2.45
2023-02-06T20:39:11.104Z,2.48
2023-02-06T20:41:37.394Z,2.37
2023-02-06T20:44:03.693Z,2.21
2023-02-06T20:46:30.016Z,2.35
2023-02-06T20:48:56.626Z,2.45
2023-02-06T20:51:22.904Z,2.52
2023-02-06T20:53:49.217Z,2.38
2023-02-06T20:56:15.536Z,2.47
2023-02-06T20:58:41.839Z,1.90
2023-02-06T21:01:08.187Z,2.20
2023-02-06T21:03:34.470Z,2.05
2023-02-06T21:06:00.767Z,1.78
2023-02-06T21:08:27.035Z,1.90
2023-02-06T21:10:53.319Z,1.60
2023-02-06T21:13:19.589Z,1.63
2023-02-06T21:15:45.912Z,1.29
2023-02-06T21:18:12.239Z,1.35
2023-02-06T21:20:38.677Z,1.36
2023-02-06T21:23:05.085Z,1.67
2023-02-06T21:25:31.338Z,1.45
2023-02-06T21:27:57.613Z,1.60
2023-02-06T21:30:23.925Z,1.41
2023-02-06T21:32:50.209Z,1.41
2023-02-06T21:35:16.490Z,1.70
2023-02-06T21:37:42.761Z,1.75
2023-02-06T21:40:09.016Z,1.79
2023-02-06T21:42:35.305Z,1.55
2023-02-06T21:45:01.593Z,1.73
2023-02-06T21:47:27.908Z,2.01
2023-02-06T21:49:54.192Z,2.03
2023-02-06T21:52:20.467Z,2.24
2023-02-06T21:54:46.758Z,2.17
2023-02-06T21:57:13.024Z,2.37
2023-02-06T21:59:39.296Z,2.48
2023-02-06T22:02:05.563Z,2.49
2023-02-06T22:04:31.826Z,2.52
2023-02-06T22:06:58.145Z,2.49
2023-02-06T22:09:24.408Z,2.34
2023-02-06T22:11:50.693Z,2.33
2023-02-06T22:14:17.020Z,2.49
2023-02-06T22:16:43.344Z,2.59
2023-02-06T22:19:09.623Z,2.18
2023-02-06T22:21:35.891Z,2.39
2023-02-06T22:24:02.154Z,2.42
2023-02-06T22:26:28.423Z,2.31
2023-02-06T22:28:54.689Z,2.48
2023-02-06T22:31:21.033Z,2.36
2023-02-06T22:33:47.417Z,1.94
2023-02-06T22:36:13.684Z,1.85
2023-02-06T22:38:39.938Z,2.04
2023-02-06T22:41:06.208Z,1.89
2023-02-06T22:43:32.478Z,1.93
2023-02-06T22:45:58.753Z,1.76
2023-02-06T22:48:25.024Z,1.28
2023-02-06T22:50:51.278Z,1.25
2023-02-06T22:53:17.548Z,1.29
2023-02-06T22:55:43.795Z,1.08
2023-02-06T22:58:10.062Z,0.98
2023-02-06T23:00:36.386Z,1.18
2023-02-06T23:03:02.651Z,0.87
2023-02-06T23:05:28.897Z,0.86
2023-02-06T23:07:55.177Z,1.12
2023-02-06T23:10:21.466Z,1.06
2023-02-06T23:12:47.718Z,1.08
2023-02-06T23:15:13.983Z,1.05
2023-02-06T23:17:40.261Z,1.17
2023-02-06T23:20:06.528Z,1.05
2023-02-06T23:22:32.786Z,0.98
2023-02-06T23:24:59.057Z,0.99
2023-02-06T23:27:25.310Z,1.05
2023-02-06T23:29:51.562Z,1.05
2023-02-06T23:32:17.820Z,1.08
2023-02-06T23:34:44.089Z,1.13
2023-02-06T23:37:10.363Z,1.17
2023-02-06T23:39:36.606Z,0.98
2023-02-06T23:42:02.882Z,1.06
2023-02-06T23:44:29.153Z,0.92
2023-02-06T23:46:55.417Z,0.83
2023-02-06T23:49:21.691Z,1.05
2023-02-06T23:51:47.975Z,0.83
2023-02-06T23:54:14.242Z,0.94
2023-02-06T23:56:40.502Z,1.09
2023-02-06T23:59:06.832Z,1.08
